sensor_id;sensor_type;location;lat;lon;timestamp;pressure;altitude;pressure_sealevel;temperature;humidity
20027;BME280;10174;42.688;23.344;2023-02-12T00:02:22;96312.00;;;0.46;46.18
20027;BME280;10174;42.688;23.344;2023-02-12T00:04:47;96310.19;;;0.46;46.37
20027;BME280;10174;42.688;23.344;2023-02-12T00:07:13;96320.78;;;0.46;46.47
20027;BME280;10174;42.688;23.344;2023-02-12T00:09:38;96271.31;;;0.24;45.99
20027;BME280;10174;42.688;23.344;2023-02-12T00:12:04;96308.69;;;0.52;45.63
20027;BME280;10174;42.688;23.344;2023-02-12T00:14:29;96322.25;;;0.49;46.29
20027;BME280;10174;42.688;23.344;2023-02-12T00:16:55;96311.81;;;0.47;45.68
20027;BME280;10174;42.688;23.344;2023-02-12T00:19:20;96314.97;;;0.43;46.18
20027;BME280;10174;42.688;23.344;2023-02-12T00:21:45;96303.50;;;0.27;46.52
20027;BME280;10174;42.688;23.344;2023-02-12T00:24:11;96311.94;;;0.31;46.36
20027;BME280;10174;42.688;23.344;2023-02-12T00:26:36;96184.16;;;-0.39;46.44
20027;BME280;10174;42.688;23.344;2023-02-12T00:29:02;96300.00;;;0.35;46.36
20027;BME280;10174;42.688;23.344;2023-02-12T00:31:29;96184.03;;;-0.46;46.02
20027;BME280;10174;42.688;23.344;2023-02-12T00:33:55;96233.09;;;-0.20;46.56
20027;BME280;10174;42.688;23.344;2023-02-12T00:36:24;96294.78;;;0.27;46.61
20027;BME280;10174;42.688;23.344;2023-02-12T00:38:51;96283.72;;;0.23;46.78
20027;BME280;10174;42.688;23.344;2023-02-12T00:41:18;96284.72;;;0.22;46.29
20027;BME280;10174;42.688;23.344;2023-02-12T00:43:43;96232.81;;;-0.02;46.54
20027;BME280;10174;42.688;23.344;2023-02-12T00:46:09;96297.00;;;0.38;46.34
20027;BME280;10174;42.688;23.344;2023-02-12T00:48:35;96164.16;;;-0.33;45.73
20027;BME280;10174;42.688;23.344;2023-02-12T00:51:01;96271.25;;;0.32;46.17
20027;BME280;10174;42.688;23.344;2023-02-12T00:53:27;96158.31;;;-0.21;46.09
20027;BME280;10174;42.688;23.344;2023-02-12T00:55:52;96263.22;;;0.48;46.02
20027;BME280;10174;42.688;23.344;2023-02-12T00:58:17;96262.09;;;0.43;46.26
20027;BME280;10174;42.688;23.344;2023-02-12T01:00:43;96253.81;;;0.46;46.41
20027;BME280;10174;42.688;23.344;2023-02-12T01:03:09;96255.00;;;0.43;46.01
20027;BME280;10174;42.688;23.344;2023-02-12T01:05:35;96246.75;;;0.38;46.40
20027;BME280;10174;42.688;23.344;2023-02-12T01:08:02;96263.53;;;0.53;46.31
20027;BME280;10174;42.688;23.344;2023-02-12T01:10:28;96266.19;;;0.53;46.02
20027;BME280;10174;42.688;23.344;2023-02-12T01:12:54;96264.53;;;0.52;46.25
20027;BME280;10174;42.688;23.344;2023-02-12T01:15:19;96262.84;;;0.60;45.97
20027;BME280;10174;42.688;23.344;2023-02-12T01:17:45;96240.59;;;0.46;46.13
20027;BME280;10174;42.688;23.344;2023-02-12T01:20:13;96160.13;;;0.02;45.48
20027;BME280;10174;42.688;23.344;2023-02-12T01:22:41;96268.31;;;0.73;45.68
20027;BME280;10174;42.688;23.344;2023-02-12T01:25:07;96268.03;;;0.68;45.94
20027;BME280;10174;42.688;23.344;2023-02-12T01:27:32;96206.06;;;0.24;46.28
20027;BME280;10174;42.688;23.344;2023-02-12T01:29:58;96264.09;;;0.64;46.32
20027;BME280;10174;42.688;23.344;2023-02-12T01:32:23;96210.19;;;0.27;46.73
20027;BME280;10174;42.688;23.344;2023-02-12T01:34:49;96283.75;;;0.69;46.38
20027;BME280;10174;42.688;23.344;2023-02-12T01:37:14;96283.28;;;0.66;46.81
20027;BME280;10174;42.688;23.344;2023-02-12T01:39:40;96231.56;;;0.40;46.99
20027;BME280;10174;42.688;23.344;2023-02-12T01:42:05;96261.19;;;0.59;47.49
20027;BME280;10174;42.688;23.344;2023-02-12T01:44:32;96222.97;;;0.38;47.29
20027;BME280;10174;42.688;23.344;2023-02-12T01:47:04;96256.72;;;0.36;47.91
20027;BME280;10174;42.688;23.344;2023-02-12T01:49:31;96252.47;;;0.27;48.24
20027;BME280;10174;42.688;23.344;2023-02-12T01:54:36;96250.25;;;0.15;48.51
20027;BME280;10174;42.688;23.344;2023-02-12T01:57:04;96222.59;;;-0.05;49.03
20027;BME280;10174;42.688;23.344;2023-02-12T01:59:30;96247.63;;;0.07;49.31
20027;BME280;10174;42.688;23.344;2023-02-12T02:01:57;96237.50;;;-0.12;49.50
20027;BME280;10174;42.688;23.344;2023-02-12T02:04:27;96223.19;;;-0.18;49.76
20027;BME280;10174;42.688;23.344;2023-02-12T02:06:59;96251.31;;;-0.02;49.62
20027;BME280;10174;42.688;23.344;2023-02-12T02:09:26;96253.34;;;-0.12;50.54
20027;BME280;10174;42.688;23.344;2023-02-12T02:11:52;96243.91;;;-0.07;49.92
20027;BME280;10174;42.688;23.344;2023-02-12T02:14:37;96256.72;;;-0.27;51.07
20027;BME280;10174;42.688;23.344;2023-02-12T02:17:23;96253.63;;;-0.39;51.41
20027;BME280;10174;42.688;23.344;2023-02-12T02:22:43;96126.75;;;-1.24;52.54
20027;BME280;10174;42.688;23.344;2023-02-12T02:30:59;96238.09;;;-0.81;53.94
20027;BME280;10174;42.688;23.344;2023-02-12T02:39:27;96228.22;;;-0.87;54.73
20027;BME280;10174;42.688;23.344;2023-02-12T02:42:01;96238.09;;;-0.81;54.53
20027;BME280;10174;42.688;23.344;2023-02-12T02:44:36;96233.81;;;-0.74;54.53
20027;BME280;10174;42.688;23.344;2023-02-12T02:47:07;96232.44;;;-0.62;53.83
20027;BME280;10174;42.688;23.344;2023-02-12T02:49:42;96139.91;;;-1.08;53.39
20027;BME280;10174;42.688;23.344;2023-02-12T02:52:13;96230.03;;;-0.40;53.54
20027;BME280;10174;42.688;23.344;2023-02-12T02:54:48;96247.81;;;-0.26;52.77
20027;BME280;10174;42.688;23.344;2023-02-12T02:57:19;96232.44;;;-0.22;52.23
20027;BME280;10174;42.688;23.344;2023-02-12T02:59:53;96189.50;;;-0.56;52.45
20027;BME280;10174;42.688;23.344;2023-02-12T03:02:27;96176.38;;;-0.64;52.52
20027;BME280;10174;42.688;23.344;2023-02-12T03:05:01;96258.63;;;-0.12;52.40
20027;BME280;10174;42.688;23.344;2023-02-12T03:07:32;96253.41;;;-0.21;53.02
20027;BME280;10174;42.688;23.344;2023-02-12T03:10:30;96244.25;;;-0.10;52.23
20027;BME280;10174;42.688;23.344;2023-02-12T03:13:22;96209.34;;;-0.28;52.59
20027;BME280;10174;42.688;23.344;2023-02-12T03:16:03;96254.00;;;-0.10;52.48
20027;BME280;10174;42.688;23.344;2023-02-12T03:18:35;96235.19;;;-0.15;52.27
20027;BME280;10174;42.688;23.344;2023-02-12T03:21:10;96232.72;;;-0.17;52.59
20027;BME280;10174;42.688;23.344;2023-02-12T03:23:41;96226.94;;;-0.12;52.89
20027;BME280;10174;42.688;23.344;2023-02-12T03:26:23;96220.03;;;-0.22;52.22
20027;BME280;10174;42.688;23.344;2023-02-12T03:28:50;96236.75;;;-0.21;52.94
20027;BME280;10174;42.688;23.344;2023-02-12T03:36:50;96246.16;;;-0.27;53.46
20027;BME280;10174;42.688;23.344;2023-02-12T03:42:38;96236.16;;;-0.08;52.99
20027;BME280;10174;42.688;23.344;2023-02-12T03:44:49;96244.09;;;-0.08;52.89
20027;BME280;10174;42.688;23.344;2023-02-12T03:50:22;96241.06;;;0.03;52.23
20027;BME280;10174;42.688;23.344;2023-02-12T03:52:50;96242.84;;;0.11;52.18
20027;BME280;10174;42.688;23.344;2023-02-12T03:55:16;96152.91;;;-0.59;52.54
20027;BME280;10174;42.688;23.344;2023-02-12T03:57:54;96246.94;;;0.13;52.25
20027;BME280;10174;42.688;23.344;2023-02-12T04:00:25;96235.66;;;0.20;52.13
20027;BME280;10174;42.688;23.344;2023-02-12T04:02:52;96246.34;;;0.03;52.51
20027;BME280;10174;42.688;23.344;2023-02-12T04:05:22;96226.22;;;-0.06;52.94
20027;BME280;10174;42.688;23.344;2023-02-12T04:07:48;96230.53;;;-0.05;52.96
20027;BME280;10174;42.688;23.344;2023-02-12T04:10:14;96243.53;;;0.05;52.51
20027;BME280;10174;42.688;23.344;2023-02-12T04:15:50;96240.91;;;0.28;52.00
20027;BME280;10174;42.688;23.344;2023-02-12T04:21:06;96227.03;;;0.26;51.34
20027;BME280;10174;42.688;23.344;2023-02-12T04:23:39;96250.25;;;0.15;52.54
20027;BME280;10174;42.688;23.344;2023-02-12T04:28:58;96185.97;;;-0.08;51.90
20027;BME280;10174;42.688;23.344;2023-02-12T04:37:15;96252.47;;;0.27;52.45
20027;BME280;10174;42.688;23.344;2023-02-12T04:39:43;96180.41;;;-0.22;52.39
20027;BME280;10174;42.688;23.344;2023-02-12T04:42:09;96249.31;;;0.31;52.10
20027;BME280;10174;42.688;23.344;2023-02-12T04:44:40;96268.09;;;0.37;52.27
20027;BME280;10174;42.688;23.344;2023-02-12T04:47:07;96218.53;;;0.15;51.66
20027;BME280;10174;42.688;23.344;2023-02-12T04:49:32;96270.34;;;0.48;52.03
20027;BME280;10174;42.688;23.344;2023-02-12T04:51:58;96225.44;;;0.16;52.33
20027;BME280;10174;42.688;23.344;2023-02-12T04:54:23;96263.13;;;0.42;51.94
20027;BME280;10174;42.688;23.344;2023-02-12T04:56:49;96263.91;;;0.50;51.95
20027;BME280;10174;42.688;23.344;2023-02-12T04:59:15;96273.16;;;0.46;52.53
20027;BME280;10174;42.688;23.344;2023-02-12T05:01:41;96256.94;;;0.49;52.27
20027;BME280;10174;42.688;23.344;2023-02-12T05:04:07;96217.13;;;0.28;52.25
20027;BME280;10174;42.688;23.344;2023-02-12T05:06:36;96254.75;;;0.53;51.83
20027;BME280;10174;42.688;23.344;2023-02-12T05:09:03;96265.00;;;0.56;52.20
20027;BME280;10174;42.688;23.344;2023-02-12T05:11:28;96241.44;;;0.23;52.74
20027;BME280;10174;42.688;23.344;2023-02-12T05:13:54;96274.88;;;0.39;52.29
20027;BME280;10174;42.688;23.344;2023-02-12T05:16:20;96248.41;;;0.16;52.68
20027;BME280;10174;42.688;23.344;2023-02-12T05:18:46;96182.69;;;-0.10;52.47
20027;BME280;10174;42.688;23.344;2023-02-12T05:21:12;96279.16;;;0.40;52.75
20027;BME280;10174;42.688;23.344;2023-02-12T05:23:39;96279.75;;;0.50;52.87
20027;BME280;10174;42.688;23.344;2023-02-12T05:26:09;96289.22;;;0.45;52.98
20027;BME280;10174;42.688;23.344;2023-02-12T05:28:35;96290.00;;;0.53;53.09
20027;BME280;10174;42.688;23.344;2023-02-12T05:31:05;96239.53;;;0.32;52.64
20027;BME280;10174;42.688;23.344;2023-02-12T05:33:31;96276.69;;;0.62;52.49
20027;BME280;10174;42.688;23.344;2023-02-12T05:38:30;96278.22;;;0.33;53.13
20027;BME280;10174;42.688;23.344;2023-02-12T05:41:03;96311.50;;;0.50;53.22
20027;BME280;10174;42.688;23.344;2023-02-12T05:43:29;96241.06;;;0.03;54.22
20027;BME280;10174;42.688;23.344;2023-02-12T05:46:01;96319.44;;;0.50;54.64
20027;BME280;10174;42.688;23.344;2023-02-12T05:48:27;96289.47;;;0.27;54.54
20027;BME280;10174;42.688;23.344;2023-02-12T05:50:53;96327.53;;;0.49;55.54
20027;BME280;10174;42.688;23.344;2023-02-12T05:53:18;96315.69;;;0.37;56.99
20027;BME280;10174;42.688;23.344;2023-02-12T05:55:44;96319.25;;;0.21;57.50
20027;BME280;10174;42.688;23.344;2023-02-12T05:58:09;96295.56;;;0.04;58.51
20027;BME280;10174;42.688;23.344;2023-02-12T06:00:35;96206.34;;;-0.57;59.84
20027;BME280;10174;42.688;23.344;2023-02-12T06:03:00;96329.72;;;0.06;61.32
20027;BME280;10174;42.688;23.344;2023-02-12T06:05:25;96328.28;;;-0.05;61.64
20027;BME280;10174;42.688;23.344;2023-02-12T06:07:51;96208.22;;;-0.74;61.83
20027;BME280;10174;42.688;23.344;2023-02-12T06:10:16;96304.34;;;-0.04;61.47
20027;BME280;10174;42.688;23.344;2023-02-12T06:12:42;96327.44;;;0.03;62.46
20027;BME280;10174;42.688;23.344;2023-02-12T06:15:07;96323.94;;;0.10;62.15
20027;BME280;10174;42.688;23.344;2023-02-12T06:17:33;96286.41;;;-0.16;62.60
20027;BME280;10174;42.688;23.344;2023-02-12T06:19:59;96336.78;;;0.22;62.76
20027;BME280;10174;42.688;23.344;2023-02-12T06:22:24;96343.34;;;0.26;63.21
20027;BME280;10174;42.688;23.344;2023-02-12T06:24:50;96334.59;;;0.25;63.76
20027;BME280;10174;42.688;23.344;2023-02-12T06:27:15;96343.66;;;0.31;64.15
20027;BME280;10174;42.688;23.344;2023-02-12T06:29:40;96346.03;;;0.17;65.66
20027;BME280;10174;42.688;23.344;2023-02-12T06:32:07;96333.50;;;0.11;67.45
20027;BME280;10174;42.688;23.344;2023-02-12T06:34:32;96326.09;;;0.07;67.65
20027;BME280;10174;42.688;23.344;2023-02-12T06:36:58;96278.53;;;-0.33;68.70
20027;BME280;10174;42.688;23.344;2023-02-12T06:39:23;96316.50;;;-0.26;69.86
20027;BME280;10174;42.688;23.344;2023-02-12T06:41:49;96281.22;;;-0.41;69.96
20027;BME280;10174;42.688;23.344;2023-02-12T06:44:14;96348.72;;;0.09;70.36
20027;BME280;10174;42.688;23.344;2023-02-12T06:46:40;96330.63;;;-0.10;71.01
20027;BME280;10174;42.688;23.344;2023-02-12T06:49:06;96264.88;;;-0.45;70.84
20027;BME280;10174;42.688;23.344;2023-02-12T06:51:31;96265.38;;;-0.41;70.95
20027;BME280;10174;42.688;23.344;2023-02-12T06:53:57;96320.84;;;-0.02;71.25
20027;BME280;10174;42.688;23.344;2023-02-12T06:56:24;96336.53;;;0.00;72.14
20027;BME280;10174;42.688;23.344;2023-02-12T06:58:56;96348.41;;;0.04;72.31
20027;BME280;10174;42.688;23.344;2023-02-12T07:01:24;96345.25;;;0.09;72.01
20027;BME280;10174;42.688;23.344;2023-02-12T07:04:01;96279.16;;;-0.23;71.49
20027;BME280;10174;42.688;23.344;2023-02-12T07:06:28;96353.28;;;0.24;71.53
20027;BME280;10174;42.688;23.344;2023-02-12T07:08:55;96342.97;;;0.37;71.28
20027;BME280;10174;42.688;23.344;2023-02-12T07:11:25;96252.06;;;-0.16;70.74
20027;BME280;10174;42.688;23.344;2023-02-12T07:13:51;96354.00;;;0.49;70.57
20027;BME280;10174;42.688;23.344;2023-02-12T07:16:16;96347.59;;;0.35;70.73
20027;BME280;10174;42.688;23.344;2023-02-12T07:18:43;96328.22;;;0.11;71.25
20027;BME280;10174;42.688;23.344;2023-02-12T07:21:10;96332.59;;;0.27;70.48
20027;BME280;10174;42.688;23.344;2023-02-12T07:23:36;96359.09;;;0.19;70.82
20027;BME280;10174;42.688;23.344;2023-02-12T07:26:10;96288.88;;;-0.15;71.22
20027;BME280;10174;42.688;23.344;2023-02-12T07:28:36;96350.59;;;0.32;70.96
20027;BME280;10174;42.688;23.344;2023-02-12T07:31:09;96292.34;;;-0.14;70.90
20027;BME280;10174;42.688;23.344;2023-02-12T07:33:35;96352.53;;;0.38;70.85
20027;BME280;10174;42.688;23.344;2023-02-12T07:36:02;96360.72;;;0.51;70.30
20027;BME280;10174;42.688;23.344;2023-02-12T07:38:28;96361.81;;;0.34;70.26
20027;BME280;10174;42.688;23.344;2023-02-12T07:40:54;96367.06;;;0.42;70.28
20027;BME280;10174;42.688;23.344;2023-02-12T07:43:23;96364.16;;;0.29;71.03
20027;BME280;10174;42.688;23.344;2023-02-12T07:45:48;96383.06;;;0.49;69.99
20027;BME280;10174;42.688;23.344;2023-02-12T07:48:14;96376.72;;;0.27;71.15
20027;BME280;10174;42.688;23.344;2023-02-12T07:50:39;96376.38;;;0.30;71.38
20027;BME280;10174;42.688;23.344;2023-02-12T07:53:04;96379.72;;;0.24;71.33
20027;BME280;10174;42.688;23.344;2023-02-12T07:55:30;96303.53;;;-0.12;71.28
20027;BME280;10174;42.688;23.344;2023-02-12T07:57:55;96371.72;;;0.32;71.36
20027;BME280;10174;42.688;23.344;2023-02-12T08:00:21;96368.44;;;0.30;71.40
20027;BME280;10174;42.688;23.344;2023-02-12T08:02:52;96343.75;;;0.14;71.47
20027;BME280;10174;42.688;23.344;2023-02-12T08:05:18;96368.50;;;0.22;71.53
20027;BME280;10174;42.688;23.344;2023-02-12T08:07:44;96358.56;;;0.24;72.01
20027;BME280;10174;42.688;23.344;2023-02-12T08:10:09;96378.63;;;0.10;72.78
20027;BME280;10174;42.688;23.344;2023-02-12T08:12:35;96368.50;;;0.13;72.52
20027;BME280;10174;42.688;23.344;2023-02-12T08:15:00;96369.13;;;0.24;72.19
20027;BME280;10174;42.688;23.344;2023-02-12T08:17:26;96343.84;;;-0.19;73.38
20027;BME280;10174;42.688;23.344;2023-02-12T08:19:51;96376.94;;;0.17;72.94
20027;BME280;10174;42.688;23.344;2023-02-12T08:22:16;96247.81;;;-0.65;73.35
20027;BME280;10174;42.688;23.344;2023-02-12T08:24:43;96363.56;;;0.19;73.07
20027;BME280;10174;42.688;23.344;2023-02-12T08:27:08;96292.56;;;-0.24;72.70
20027;BME280;10174;42.688;23.344;2023-02-12T08:29:33;96376.16;;;0.08;73.12
20027;BME280;10174;42.688;23.344;2023-02-12T08:32:01;96367.97;;;-0.13;73.53
20027;BME280;10174;42.688;23.344;2023-02-12T08:34:32;96389.19;;;0.10;73.46
20027;BME280;10174;42.688;23.344;2023-02-12T08:36:58;96390.59;;;0.29;72.68
20027;BME280;10174;42.688;23.344;2023-02-12T08:39:26;96397.47;;;0.38;73.07
20027;BME280;10174;42.688;23.344;2023-02-12T08:41:56;96384.94;;;0.40;72.01
20027;BME280;10174;42.688;23.344;2023-02-12T08:44:25;96361.22;;;0.24;72.42
20027;BME280;10174;42.688;23.344;2023-02-12T08:46:52;96409.91;;;0.69;72.07
20027;BME280;10174;42.688;23.344;2023-02-12T08:49:23;96410.50;;;0.79;71.11
20027;BME280;10174;42.688;23.344;2023-02-12T08:51:52;96365.31;;;0.58;71.42
20027;BME280;10174;42.688;23.344;2023-02-12T08:54:20;96416.28;;;0.83;71.03
20027;BME280;10174;42.688;23.344;2023-02-12T08:56:45;96408.28;;;0.91;70.48
20027;BME280;10174;42.688;23.344;2023-02-12T08:59:12;96419.53;;;0.62;71.23
20027;BME280;10174;42.688;23.344;2023-02-12T09:01:38;96381.72;;;0.22;72.02
20027;BME280;10174;42.688;23.344;2023-02-12T09:04:10;96410.00;;;0.52;71.62
20027;BME280;10174;42.688;23.344;2023-02-12T09:06:37;96376.56;;;0.28;72.06
20027;BME280;10174;42.688;23.344;2023-02-12T09:09:02;96357.47;;;0.10;72.10
20027;BME280;10174;42.688;23.344;2023-02-12T09:11:28;96416.16;;;0.45;72.42
20027;BME280;10174;42.688;23.344;2023-02-12T09:14:00;96323.56;;;-0.18;72.63
20027;BME280;10174;42.688;23.344;2023-02-12T09:16:27;96427.25;;;0.40;73.39
20027;BME280;10174;42.688;23.344;2023-02-12T09:18:53;96438.44;;;0.50;73.70
20027;BME280;10174;42.688;23.344;2023-02-12T09:21:19;96399.34;;;0.29;73.67
20027;BME280;10174;42.688;23.344;2023-02-12T09:23:45;96330.56;;;0.06;73.21
20027;BME280;10174;42.688;23.344;2023-02-12T09:26:13;96420.50;;;0.61;73.27
20027;BME280;10174;42.688;23.344;2023-02-12T09:28:39;96405.19;;;0.79;72.35
20027;BME280;10174;42.688;23.344;2023-02-12T09:31:10;96433.13;;;1.13;71.74
20027;BME280;10174;42.688;23.344;2023-02-12T09:33:37;96428.88;;;1.04;71.60
20027;BME280;10174;42.688;23.344;2023-02-12T09:36:04;96417.94;;;1.07;71.20
20027;BME280;10174;42.688;23.344;2023-02-12T09:38:29;96430.50;;;1.05;71.66
20027;BME280;10174;42.688;23.344;2023-02-12T09:43:55;96444.75;;;1.04;71.46
20027;BME280;10174;42.688;23.344;2023-02-12T09:46:32;96453.81;;;1.10;71.66
20027;BME280;10174;42.688;23.344;2023-02-12T09:49:08;96456.88;;;0.98;71.46
20027;BME280;10174;42.688;23.344;2023-02-12T09:51:35;96397.75;;;0.51;72.43
20027;BME280;10174;42.688;23.344;2023-02-12T09:54:13;96458.72;;;0.89;72.37
20027;BME280;10174;42.688;23.344;2023-02-12T09:56:43;96376.94;;;0.48;72.52
20027;BME280;10174;42.688;23.344;2023-02-12T09:59:13;96424.66;;;1.18;71.25
20027;BME280;10174;42.688;23.344;2023-02-12T10:01:43;96447.31;;;1.58;70.71
20027;BME280;10174;42.688;23.344;2023-02-12T10:04:08;96457.78;;;1.75;69.33
20027;BME280;10174;42.688;23.344;2023-02-12T10:07:00;96450.31;;;1.93;67.87
20027;BME280;10174;42.688;23.344;2023-02-12T10:24:04;96451.69;;;2.04;67.64
20027;BME280;10174;42.688;23.344;2023-02-12T10:26:43;96433.81;;;2.06;67.20
20027;BME280;10174;42.688;23.344;2023-02-12T10:29:23;96459.38;;;1.99;67.74
20027;BME280;10174;42.688;23.344;2023-02-12T10:31:56;96469.31;;;1.82;68.34
20027;BME280;10174;42.688;23.344;2023-02-12T10:34:27;96411.97;;;1.66;68.23
20027;BME280;10174;42.688;23.344;2023-02-12T10:37:33;96334.00;;;1.31;67.48
20027;BME280;10174;42.688;23.344;2023-02-12T10:39:57;96436.25;;;2.23;66.58
20027;BME280;10174;42.688;23.344;2023-02-12T10:45:00;96448.16;;;2.42;66.28
20027;BME280;10174;42.688;23.344;2023-02-12T10:47:26;96440.06;;;2.80;65.22
20027;BME280;10174;42.688;23.344;2023-02-12T10:49:57;96440.09;;;2.50;65.67
20027;BME280;10174;42.688;23.344;2023-02-12T10:52:46;96334.88;;;1.91;66.03
20027;BME280;10174;42.688;23.344;2023-02-12T10:55:32;96404.75;;;2.64;65.17
20027;BME280;10174;42.688;23.344;2023-02-12T10:57:59;96408.56;;;2.77;64.46
20027;BME280;10174;42.688;23.344;2023-02-12T11:00:36;96373.69;;;2.28;65.20
20027;BME280;10174;42.688;23.344;2023-02-12T11:05:38;96460.22;;;2.14;67.19
20027;BME280;10174;42.688;23.344;2023-02-12T11:08:05;96418.50;;;1.93;66.98
20027;BME280;10174;42.688;23.344;2023-02-12T11:10:40;96321.75;;;1.30;67.11
20027;BME280;10174;42.688;23.344;2023-02-12T11:13:21;96458.94;;;2.25;66.96
20027;BME280;10174;42.688;23.344;2023-02-12T11:15:48;96387.88;;;2.06;66.75
20027;BME280;10174;42.688;23.344;2023-02-12T11:18:33;96377.09;;;2.07;66.19
20027;BME280;10174;42.688;23.344;2023-02-12T11:21:09;96333.78;;;2.00;65.53
20027;BME280;10174;42.688;23.344;2023-02-12T11:23:38;96440.84;;;2.95;65.32
20027;BME280;10174;42.688;23.344;2023-02-12T11:28:31;96381.56;;;2.73;63.94
20027;BME280;10174;42.688;23.344;2023-02-12T11:31:20;96445.78;;;3.20;63.47
20027;BME280;10174;42.688;23.344;2023-02-12T11:34:18;96330.84;;;2.61;62.72
20027;BME280;10174;42.688;23.344;2023-02-12T11:36:51;96418.84;;;3.23;62.51
20027;BME280;10174;42.688;23.344;2023-02-12T11:41:42;96419.69;;;2.87;63.82
20027;BME280;10174;42.688;23.344;2023-02-12T11:44:26;96445.91;;;2.90;64.29
20027;BME280;10174;42.688;23.344;2023-02-12T11:46:56;96444.97;;;3.19;63.91
20027;BME280;10174;42.688;23.344;2023-02-12T11:49:27;96382.66;;;3.00;62.98
20027;BME280;10174;42.688;23.344;2023-02-12T11:51:55;96422.44;;;3.15;63.18
20027;BME280;10174;42.688;23.344;2023-02-12T11:54:27;96401.25;;;3.00;63.46
20027;BME280;10174;42.688;23.344;2023-02-12T11:56:53;96421.25;;;3.18;63.13
20027;BME280;10174;42.688;23.344;2023-02-12T11:59:35;96437.63;;;3.21;63.48
20027;BME280;10174;42.688;23.344;2023-02-12T12:04:38;96441.97;;;3.08;63.78
20027;BME280;10174;42.688;23.344;2023-02-12T12:07:12;96446.69;;;3.27;63.01
20027;BME280;10174;42.688;23.344;2023-02-12T12:09:50;96433.41;;;3.06;63.63
20027;BME280;10174;42.688;23.344;2023-02-12T12:14:58;96433.88;;;3.16;63.82
20027;BME280;10174;42.688;23.344;2023-02-12T12:17:55;96333.47;;;2.40;64.29
20027;BME280;10174;42.688;23.344;2023-02-12T12:20:55;96333.59;;;2.53;64.82
20027;BME280;10174;42.688;23.344;2023-02-12T12:23:34;96445.16;;;2.96;65.03
20027;BME280;10174;42.688;23.344;2023-02-12T12:26:06;96451.66;;;3.15;64.55
20027;BME280;10174;42.688;23.344;2023-02-12T12:28:44;96391.16;;;2.89;63.77
20027;BME280;10174;42.688;23.344;2023-02-12T12:33:47;96279.38;;;2.62;62.56
20027;BME280;10174;42.688;23.344;2023-02-12T12:47:39;96453.13;;;3.39;62.76
20027;BME280;10174;42.688;23.344;2023-02-12T12:58:36;96458.81;;;3.58;62.72
20027;BME280;10174;42.688;23.344;2023-02-12T13:01:45;96465.06;;;3.72;62.85
20027;BME280;10174;42.688;23.344;2023-02-12T13:09:25;96477.81;;;3.33;63.75
20027;BME280;10174;42.688;23.344;2023-02-12T13:12:15;96470.22;;;3.30;63.31
20027;BME280;10174;42.688;23.344;2023-02-12T13:15:08;96364.81;;;2.73;63.62
20027;BME280;10174;42.688;23.344;2023-02-12T13:17:43;96481.75;;;3.59;63.10
20027;BME280;10174;42.688;23.344;2023-02-12T13:26:41;96474.13;;;3.78;61.91
20027;BME280;10174;42.688;23.344;2023-02-12T13:31:18;96465.38;;;3.84;62.02
20027;BME280;10174;42.688;23.344;2023-02-12T13:33:51;96366.34;;;3.03;62.47
20027;BME280;10174;42.688;23.344;2023-02-12T13:36:19;96429.03;;;3.41;62.95
20027;BME280;10174;42.688;23.344;2023-02-12T13:38:55;96369.88;;;3.32;61.82
20027;BME280;10174;42.688;23.344;2023-02-12T13:41:24;96202.72;;;1.88;63.15
20027;BME280;10174;42.688;23.344;2023-02-12T13:44:19;96488.03;;;3.80;61.74
20027;BME280;10174;42.688;23.344;2023-02-12T13:47:06;96473.59;;;3.89;61.53
20027;BME280;10174;42.688;23.344;2023-02-12T13:52:49;96502.91;;;3.74;61.58
20027;BME280;10174;42.688;23.344;2023-02-12T14:01:12;96443.19;;;3.05;63.57
20027;BME280;10174;42.688;23.344;2023-02-12T14:03:39;96507.81;;;3.49;63.34
20027;BME280;10174;42.688;23.344;2023-02-12T14:08:42;96519.66;;;3.31;64.05
20027;BME280;10174;42.688;23.344;2023-02-12T14:11:12;96524.97;;;3.31;63.94
20027;BME280;10174;42.688;23.344;2023-02-12T14:21:56;96527.41;;;3.11;65.43
20027;BME280;10174;42.688;23.344;2023-02-12T14:27:29;96540.63;;;3.05;65.85
20027;BME280;10174;42.688;23.344;2023-02-12T14:37:59;96533.94;;;2.94;65.73
20027;BME280;10174;42.688;23.344;2023-02-12T14:43:35;96550.59;;;3.02;65.83
20027;BME280;10174;42.688;23.344;2023-02-12T14:48:51;96569.28;;;2.94;65.86
20027;BME280;10174;42.688;23.344;2023-02-12T14:54:02;96571.75;;;2.81;66.42
20027;BME280;10174;42.688;23.344;2023-02-12T14:56:43;96531.03;;;2.59;66.60
20027;BME280;10174;42.688;23.344;2023-02-12T14:59:15;96582.91;;;2.76;66.81
20027;BME280;10174;42.688;23.344;2023-02-12T15:01:42;96494.13;;;2.19;66.93
20027;BME280;10174;42.688;23.344;2023-02-12T15:04:16;96561.03;;;2.59;66.68
20027;BME280;10174;42.688;23.344;2023-02-12T15:06:51;96592.63;;;2.84;66.34
20027;BME280;10174;42.688;23.344;2023-02-12T15:09:24;96586.75;;;2.59;66.75
20027;BME280;10174;42.688;23.344;2023-02-12T15:15:27;96587.03;;;2.49;67.44
20027;BME280;10174;42.688;23.344;2023-02-12T15:18:43;96620.34;;;2.66;67.56
20027;BME280;10174;42.688;23.344;2023-02-12T15:20:47;96589.78;;;2.56;67.51
20027;BME280;10174;42.688;23.344;2023-02-12T15:23:40;96619.44;;;2.74;67.62
20027;BME280;10174;42.688;23.344;2023-02-12T15:26:13;96641.41;;;2.83;67.67
20027;BME280;10174;42.688;23.344;2023-02-12T15:28:40;96641.06;;;2.86;67.37
20027;BME280;10174;42.688;23.344;2023-02-12T15:31:07;96647.66;;;2.90;67.43
20027;BME280;10174;42.688;23.344;2023-02-12T15:33:38;96641.31;;;2.91;67.06
20027;BME280;10174;42.688;23.344;2023-02-12T15:36:06;96653.31;;;2.87;67.60
20027;BME280;10174;42.688;23.344;2023-02-12T15:38:42;96659.56;;;2.94;67.16
20027;BME280;10174;42.688;23.344;2023-02-12T15:41:13;96660.38;;;2.95;67.32
20027;BME280;10174;42.688;23.344;2023-02-12T15:43:47;96670.72;;;2.90;67.86
20027;BME280;10174;42.688;23.344;2023-02-12T15:46:16;96641.00;;;2.56;68.63
20027;BME280;10174;42.688;23.344;2023-02-12T15:48:42;96673.16;;;2.76;68.11
20027;BME280;10174;42.688;23.344;2023-02-12T15:51:15;96592.84;;;2.29;68.57